Phoenix Sky Harbor International Airport
KPHX : now visible

Airfield :











YOU CAN JOIN US ON...

 
LOGIN :

Register | Disclaimer

   EN    FR    IT 

 









Legend :    VFR   Marginal VFR   IFR   Intensive IFR   Very Intensive IFR
Visi :
Ceiling :
>= 8 km
>= 3000ft
5 to 8 km
1000 to 3000 ft
1500m to 5 km
500 to 1000 ft
800 to 1500m
200 to 500 ft
< 800m
< 200 ft
Symbols :   Thunderstorms  Fog  Heavy snow  Heavy precipitations  Wind > 20 kt






- Airport Elevation : 1135 ft
- IATA code : PHX


KPHX - Phoenix Sky Harbor International

CURRENT METAR :
  • 080351Z 26006KT 10SM FEW120 FEW230 41/08 A2968 RMK AO2 SLP028 T04110078

EXPIRED METARs :
  • 080251Z 30010KT 10SM FEW120 FEW230 42/09 A2967 RMK AO2 SLP023 T04170089 55010
  • 080151Z 31011G19KT 10SM FEW120 43/09 A2967 RMK AO2 SLP023 T04280094

TAF KPHX
Valid from the 08 at 04:00 until the 09 at 06:00 UTC


080356Z 0804/0906 25006KT P6SM FEW120
FM081000 10004KT P6SM SKC
FM081700 18007KT P6SM FEW120
FM082200 26007KT P6SM SKC
KZAB FIR / North America



MET'MAP, your aeronautical weather chart ! - Copyright ORBIFLY December 2007 - Disclaimer

ORBIFLY MET'MAP TEAM :

Programming & Development : Alexandra Zaïnal
Concept & original design : Baudouin d'Aumeries
Assistance for programming : Marc-Olivier Méhu
Technical & hardware support : Manuel Goepfert

Contact : metmap@orbifly.com




SOURCES & CREDITS :

   NOAA       Earth
Advisory